sensor_id;sensor_type;location;lat;lon;timestamp;pressure;altitude;pressure_sealevel;temperature;humidity
40994;BME280;26722;43.212;27.932;2023-07-30T00:01:26;54955.63;;;-146.72;81.93
40994;BME280;26722;43.212;27.932;2023-07-30T00:03:52;54970.41;;;-146.72;82.08
40994;BME280;26722;43.212;27.932;2023-07-30T00:06:17;54976.75;;;-146.72;82.00
40994;BME280;26722;43.212;27.932;2023-07-30T00:08:43;54970.41;;;-146.72;82.03
40994;BME280;26722;43.212;27.932;2023-07-30T00:11:08;54964.09;;;-146.72;82.05
40994;BME280;26722;43.212;27.932;2023-07-30T00:13:33;54961.97;;;-146.72;81.95
40994;BME280;26722;43.212;27.932;2023-07-30T00:15:59;54966.19;;;-146.72;81.67
40994;BME280;26722;43.212;27.932;2023-07-30T00:18:24;54959.88;;;-146.72;82.00
40994;BME280;26722;43.212;27.932;2023-07-30T00:20:50;54966.19;;;-146.72;81.72
40994;BME280;26722;43.212;27.932;2023-07-30T00:23:15;54972.53;;;-146.72;81.33
40994;BME280;26722;43.212;27.932;2023-07-30T00:25:40;54959.88;;;-146.72;81.72
40994;BME280;26722;43.212;27.932;2023-07-30T00:28:06;54970.41;;;-146.72;81.66
40994;BME280;26722;43.212;27.932;2023-07-30T00:30:31;54968.31;;;-146.72;82.13
40994;BME280;26722;43.212;27.932;2023-07-30T00:32:57;54961.97;;;-146.72;81.91
40994;BME280;26722;43.212;27.932;2023-07-30T00:35:22;54970.41;;;-146.72;82.30
40994;BME280;26722;43.212;27.932;2023-07-30T00:37:48;54995.75;;;-146.72;82.42
40994;BME280;26722;43.212;27.932;2023-07-30T00:40:13;54959.88;;;-146.72;82.61
40994;BME280;26722;43.212;27.932;2023-07-30T00:42:39;54972.53;;;-146.72;82.50
40994;BME280;26722;43.212;27.932;2023-07-30T00:45:04;54976.75;;;-146.72;82.54
40994;BME280;26722;43.212;27.932;2023-07-30T00:47:30;54966.19;;;-146.72;82.66
40994;BME280;26722;43.212;27.932;2023-07-30T00:49:56;54991.53;;;-146.72;82.29
40994;BME280;26722;43.212;27.932;2023-07-30T00:52:23;54976.75;;;-146.72;82.87
40994;BME280;26722;43.212;27.932;2023-07-30T00:54:49;54985.19;;;-146.72;82.94
40994;BME280;26722;43.212;27.932;2023-07-30T00:57:16;54976.75;;;-146.72;82.73
40994;BME280;26722;43.212;27.932;2023-07-30T00:59:43;54961.97;;;-146.72;82.97
40994;BME280;26722;43.212;27.932;2023-07-30T01:02:09;54972.53;;;-146.72;82.55
40994;BME280;26722;43.212;27.932;2023-07-30T01:04:35;54964.09;;;-146.72;82.98
40994;BME280;26722;43.212;27.932;2023-07-30T01:07:02;54959.88;;;-146.72;83.30
40994;BME280;26722;43.212;27.932;2023-07-30T01:09:28;54970.41;;;-146.72;82.96
40994;BME280;26722;43.212;27.932;2023-07-30T01:11:54;54972.53;;;-146.72;82.59
40994;BME280;26722;43.212;27.932;2023-07-30T01:14:21;54968.31;;;-146.72;82.45
40994;BME280;26722;43.212;27.932;2023-07-30T01:16:48;54970.41;;;-146.72;82.30
40994;BME280;26722;43.212;27.932;2023-07-30T01:19:14;54966.19;;;-146.72;82.45
40994;BME280;26722;43.212;27.932;2023-07-30T01:21:40;54968.31;;;-146.72;82.55
40994;BME280;26722;43.212;27.932;2023-07-30T01:24:05;54959.88;;;-146.72;82.01
40994;BME280;26722;43.212;27.932;2023-07-30T01:26:37;54985.19;;;-146.72;82.12
40994;BME280;26722;43.212;27.932;2023-07-30T01:29:08;54966.19;;;-146.72;82.60
40994;BME280;26722;43.212;27.932;2023-07-30T01:31:35;54978.88;;;-146.72;82.21
40994;BME280;26722;43.212;27.932;2023-07-30T01:34:03;54961.97;;;-146.72;82.76
40994;BME280;26722;43.212;27.932;2023-07-30T01:36:29;54970.41;;;-146.72;83.15
40994;BME280;26722;43.212;27.932;2023-07-30T01:38:56;54993.63;;;-146.72;83.42
40994;BME280;26722;43.212;27.932;2023-07-30T01:41:22;54985.19;;;-146.72;83.52
40994;BME280;26722;43.212;27.932;2023-07-30T01:43:49;54970.41;;;-146.72;83.66
40994;BME280;26722;43.212;27.932;2023-07-30T01:46:15;54976.75;;;-146.72;83.61
40994;BME280;26722;43.212;27.932;2023-07-30T01:48:40;54976.75;;;-146.72;83.59
40994;BME280;26722;43.212;27.932;2023-07-30T01:51:06;54983.09;;;-146.72;83.79
40994;BME280;26722;43.212;27.932;2023-07-30T01:53:31;54980.97;;;-146.72;83.85
40994;BME280;26722;43.212;27.932;2023-07-30T01:55:56;54972.53;;;-146.72;84.17
40994;BME280;26722;43.212;27.932;2023-07-30T01:58:22;54972.53;;;-146.72;84.36
40994;BME280;26722;43.212;27.932;2023-07-30T02:00:47;54970.41;;;-146.72;84.19
40994;BME280;26722;43.212;27.932;2023-07-30T02:03:13;54974.63;;;-146.72;83.73
40994;BME280;26722;43.212;27.932;2023-07-30T02:05:38;54980.97;;;-146.72;83.71
40994;BME280;26722;43.212;27.932;2023-07-30T02:08:04;54976.75;;;-146.72;83.96
40994;BME280;26722;43.212;27.932;2023-07-30T02:10:29;54983.09;;;-146.72;83.84
40994;BME280;26722;43.212;27.932;2023-07-30T02:12:55;54983.09;;;-146.72;84.13
40994;BME280;26722;43.212;27.932;2023-07-30T02:15:20;54989.41;;;-146.72;84.28
40994;BME280;26722;43.212;27.932;2023-07-30T02:17:45;54970.41;;;-146.72;84.14
40994;BME280;26722;43.212;27.932;2023-07-30T02:20:11;54978.88;;;-146.72;84.02
40994;BME280;26722;43.212;27.932;2023-07-30T02:22:36;54972.53;;;-146.72;83.74
40994;BME280;26722;43.212;27.932;2023-07-30T02:25:02;54976.75;;;-146.72;83.95
40994;BME280;26722;43.212;27.932;2023-07-30T02:27:27;54974.63;;;-146.72;83.42
40994;BME280;26722;43.212;27.932;2023-07-30T02:29:53;54976.75;;;-146.72;83.42
40994;BME280;26722;43.212;27.932;2023-07-30T02:32:18;54985.19;;;-146.72;83.37
40994;BME280;26722;43.212;27.932;2023-07-30T02:34:43;54968.31;;;-146.72;82.85
40994;BME280;26722;43.212;27.932;2023-07-30T02:37:09;54972.53;;;-146.72;82.74
40994;BME280;26722;43.212;27.932;2023-07-30T02:39:34;54972.53;;;-146.72;82.66
40994;BME280;26722;43.212;27.932;2023-07-30T02:42:00;54966.19;;;-146.72;82.81
40994;BME280;26722;43.212;27.932;2023-07-30T02:44:25;54972.53;;;-146.72;83.11
40994;BME280;26722;43.212;27.932;2023-07-30T02:46:50;54985.19;;;-146.72;82.88
40994;BME280;26722;43.212;27.932;2023-07-30T02:49:16;54972.53;;;-146.72;83.24
40994;BME280;26722;43.212;27.932;2023-07-30T02:51:41;54980.97;;;-146.72;83.43
40994;BME280;26722;43.212;27.932;2023-07-30T02:54:08;54974.63;;;-146.72;83.74
40994;BME280;26722;43.212;27.932;2023-07-30T02:56:34;54966.19;;;-146.72;83.40
40994;BME280;26722;43.212;27.932;2023-07-30T02:59:00;54983.09;;;-146.72;83.83
40994;BME280;26722;43.212;27.932;2023-07-30T03:01:26;54976.75;;;-146.72;83.46
40994;BME280;26722;43.212;27.932;2023-07-30T03:03:51;54989.41;;;-146.72;83.38
40994;BME280;26722;43.212;27.932;2023-07-30T03:06:17;54980.97;;;-146.72;83.47
40994;BME280;26722;43.212;27.932;2023-07-30T03:08:43;54974.63;;;-146.72;83.86
40994;BME280;26722;43.212;27.932;2023-07-30T03:11:09;54980.97;;;-146.72;83.77
40994;BME280;26722;43.212;27.932;2023-07-30T03:13:34;54972.53;;;-146.72;83.48
40994;BME280;26722;43.212;27.932;2023-07-30T03:15:59;54987.31;;;-146.72;83.51
40994;BME280;26722;43.212;27.932;2023-07-30T03:18:25;54974.63;;;-146.72;83.33
40994;BME280;26722;43.212;27.932;2023-07-30T03:20:50;54972.53;;;-146.72;83.69
40994;BME280;26722;43.212;27.932;2023-07-30T03:23:16;54980.97;;;-146.72;83.74
40994;BME280;26722;43.212;27.932;2023-07-30T03:25:41;54970.41;;;-146.72;83.79
40994;BME280;26722;43.212;27.932;2023-07-30T03:28:07;54989.41;;;-146.72;83.96
40994;BME280;26722;43.212;27.932;2023-07-30T03:30:32;54985.19;;;-146.72;83.88
40994;BME280;26722;43.212;27.932;2023-07-30T03:32:58;54968.31;;;-146.72;83.22
40994;BME280;26722;43.212;27.932;2023-07-30T03:35:23;54976.75;;;-146.72;82.32
40994;BME280;26722;43.212;27.932;2023-07-30T03:37:49;54959.88;;;-146.72;80.29
40994;BME280;26722;43.212;27.932;2023-07-30T03:40:14;54955.63;;;-146.72;78.80
40994;BME280;26722;43.212;27.932;2023-07-30T03:42:39;54947.19;;;-146.72;76.11
40994;BME280;26722;43.212;27.932;2023-07-30T03:45:05;54940.88;;;-146.72;73.94
40994;BME280;26722;43.212;27.932;2023-07-30T03:47:31;54911.31;;;-146.72;71.36
40994;BME280;26722;43.212;27.932;2023-07-30T03:49:56;54919.75;;;-146.72;69.91
40994;BME280;26722;43.212;27.932;2023-07-30T03:52:22;54913.41;;;-146.72;69.15
40994;BME280;26722;43.212;27.932;2023-07-30T03:54:47;54896.53;;;-146.72;67.53
40994;BME280;26722;43.212;27.932;2023-07-30T03:57:12;54909.19;;;-146.72;66.57
40994;BME280;26722;43.212;27.932;2023-07-30T03:59:38;54909.19;;;-146.72;64.57
40994;BME280;26722;43.212;27.932;2023-07-30T04:02:03;54896.53;;;-146.72;64.79
40994;BME280;26722;43.212;27.932;2023-07-30T04:04:29;54883.84;;;-146.72;62.98
40994;BME280;26722;43.212;27.932;2023-07-30T04:06:55;54875.41;;;-146.72;61.48
40994;BME280;26722;43.212;27.932;2023-07-30T04:09:20;54879.63;;;-146.72;59.64
40994;BME280;26722;43.212;27.932;2023-07-30T04:11:46;54871.19;;;-146.72;58.36
40994;BME280;26722;43.212;27.932;2023-07-30T04:14:11;54850.09;;;-146.72;56.95
40994;BME280;26722;43.212;27.932;2023-07-30T04:16:36;54852.19;;;-146.72;55.37
40994;BME280;26722;43.212;27.932;2023-07-30T04:19:02;54841.63;;;-146.72;53.34
40994;BME280;26722;43.212;27.932;2023-07-30T04:21:27;54841.63;;;-146.72;53.15
40994;BME280;26722;43.212;27.932;2023-07-30T04:23:53;54839.53;;;-146.72;51.96
40994;BME280;26722;43.212;27.932;2023-07-30T04:26:18;54826.88;;;-146.72;50.96
40994;BME280;26722;43.212;27.932;2023-07-30T04:28:44;54828.97;;;-146.72;50.86
40994;BME280;26722;43.212;27.932;2023-07-30T04:31:09;54809.97;;;-146.72;49.19
40994;BME280;26722;43.212;27.932;2023-07-30T04:33:34;54816.31;;;-146.72;48.29
40994;BME280;26722;43.212;27.932;2023-07-30T04:36:00;54828.97;;;-146.72;47.01
40994;BME280;26722;43.212;27.932;2023-07-30T04:38:25;54824.75;;;-146.72;47.25
40994;BME280;26722;43.212;27.932;2023-07-30T04:40:51;54824.75;;;-146.72;47.04
40994;BME280;26722;43.212;27.932;2023-07-30T04:43:16;54835.31;;;-146.72;46.76
40994;BME280;26722;43.212;27.932;2023-07-30T04:45:42;54833.19;;;-146.72;47.93
40994;BME280;26722;43.212;27.932;2023-07-30T04:48:08;54831.09;;;-146.72;49.14
40994;BME280;26722;43.212;27.932;2023-07-30T04:50:33;54854.31;;;-146.72;50.16
40994;BME280;26722;43.212;27.932;2023-07-30T04:52:59;54854.31;;;-146.72;50.27
40994;BME280;26722;43.212;27.932;2023-07-30T04:55:24;54852.19;;;-146.72;50.31
40994;BME280;26722;43.212;27.932;2023-07-30T04:57:50;54862.75;;;-146.72;51.80
40994;BME280;26722;43.212;27.932;2023-07-30T05:00:16;54869.09;;;-146.72;52.84
40994;BME280;26722;43.212;27.932;2023-07-30T05:02:42;54866.97;;;-146.72;52.66
40994;BME280;26722;43.212;27.932;2023-07-30T05:05:07;54862.75;;;-146.72;53.94
40994;BME280;26722;43.212;27.932;2023-07-30T05:07:33;54862.75;;;-146.72;53.87
40994;BME280;26722;43.212;27.932;2023-07-30T05:09:58;54871.19;;;-146.72;55.46
40994;BME280;26722;43.212;27.932;2023-07-30T05:12:24;54877.53;;;-146.72;56.39
40994;BME280;26722;43.212;27.932;2023-07-30T05:14:49;54871.19;;;-146.72;57.02
40994;BME280;26722;43.212;27.932;2023-07-30T05:17:14;54883.84;;;-146.72;57.29
40994;BME280;26722;43.212;27.932;2023-07-30T05:19:40;54866.97;;;-146.72;56.04
40994;BME280;26722;43.212;27.932;2023-07-30T05:22:05;54877.53;;;-146.72;55.98
40994;BME280;26722;43.212;27.932;2023-07-30T05:24:33;54879.63;;;-146.72;57.04
40994;BME280;26722;43.212;27.932;2023-07-30T05:26:58;54877.53;;;-146.72;58.27
40994;BME280;26722;43.212;27.932;2023-07-30T05:29:23;54875.41;;;-146.72;59.05
40994;BME280;26722;43.212;27.932;2023-07-30T05:31:49;54875.41;;;-146.72;59.08
40994;BME280;26722;43.212;27.932;2023-07-30T05:34:14;54879.63;;;-146.72;57.86
40994;BME280;26722;43.212;27.932;2023-07-30T05:36:40;54866.97;;;-146.72;58.24
40994;BME280;26722;43.212;27.932;2023-07-30T05:39:05;54885.97;;;-146.72;58.02
40994;BME280;26722;43.212;27.932;2023-07-30T05:41:30;54879.63;;;-146.72;57.38
40994;BME280;26722;43.212;27.932;2023-07-30T05:43:56;54881.75;;;-146.72;57.68
40994;BME280;26722;43.212;27.932;2023-07-30T05:46:21;54877.53;;;-146.72;59.07
40994;BME280;26722;43.212;27.932;2023-07-30T05:48:47;54888.09;;;-146.72;57.73
40994;BME280;26722;43.212;27.932;2023-07-30T05:51:12;54866.97;;;-146.72;58.40
40994;BME280;26722;43.212;27.932;2023-07-30T05:53:38;54885.97;;;-146.72;58.81
40994;BME280;26722;43.212;27.932;2023-07-30T05:56:03;54896.53;;;-146.72;57.90
40994;BME280;26722;43.212;27.932;2023-07-30T05:58:29;54860.63;;;-146.72;56.81
40994;BME280;26722;43.212;27.932;2023-07-30T06:00:54;54860.63;;;-146.72;57.04
40994;BME280;26722;43.212;27.932;2023-07-30T06:03:19;54890.19;;;-146.72;56.49
40994;BME280;26722;43.212;27.932;2023-07-30T06:05:45;54852.19;;;-146.72;56.34
40994;BME280;26722;43.212;27.932;2023-07-30T06:08:10;54866.97;;;-146.72;56.29
40994;BME280;26722;43.212;27.932;2023-07-30T06:10:39;54866.97;;;-146.72;56.72
40994;BME280;26722;43.212;27.932;2023-07-30T06:13:05;54881.75;;;-146.72;56.61
40994;BME280;26722;43.212;27.932;2023-07-30T06:15:32;54871.19;;;-146.72;57.10
40994;BME280;26722;43.212;27.932;2023-07-30T06:17:58;54879.63;;;-146.72;56.16
40994;BME280;26722;43.212;27.932;2023-07-30T06:20:23;54871.19;;;-146.72;57.00
40994;BME280;26722;43.212;27.932;2023-07-30T06:22:49;54883.84;;;-146.72;57.48
40994;BME280;26722;43.212;27.932;2023-07-30T06:25:14;54877.53;;;-146.72;57.20
40994;BME280;26722;43.212;27.932;2023-07-30T06:27:40;54879.63;;;-146.72;56.73
40994;BME280;26722;43.212;27.932;2023-07-30T06:30:05;54860.63;;;-146.72;56.29
40994;BME280;26722;43.212;27.932;2023-07-30T06:32:31;54885.97;;;-146.72;57.23
40994;BME280;26722;43.212;27.932;2023-07-30T06:34:57;54869.09;;;-146.72;56.83
40994;BME280;26722;43.212;27.932;2023-07-30T06:37:22;54885.97;;;-146.72;57.21
40994;BME280;26722;43.212;27.932;2023-07-30T06:39:47;54883.84;;;-146.72;57.50
40994;BME280;26722;43.212;27.932;2023-07-30T06:42:13;54877.53;;;-146.72;56.86
40994;BME280;26722;43.212;27.932;2023-07-30T06:44:39;54869.09;;;-146.72;57.05
40994;BME280;26722;43.212;27.932;2023-07-30T06:47:04;54875.41;;;-146.72;56.61
40994;BME280;26722;43.212;27.932;2023-07-30T06:49:29;54866.97;;;-146.72;57.18
40994;BME280;26722;43.212;27.932;2023-07-30T06:51:55;54862.75;;;-146.72;57.24
40994;BME280;26722;43.212;27.932;2023-07-30T06:54:20;54869.09;;;-146.72;57.12
40994;BME280;26722;43.212;27.932;2023-07-30T06:56:46;54881.75;;;-146.72;57.42
40994;BME280;26722;43.212;27.932;2023-07-30T06:59:11;54875.41;;;-146.72;57.88
40994;BME280;26722;43.212;27.932;2023-07-30T07:01:37;54888.09;;;-146.72;58.27
40994;BME280;26722;43.212;27.932;2023-07-30T07:04:02;54875.41;;;-146.72;57.10
40994;BME280;26722;43.212;27.932;2023-07-30T07:06:28;54892.31;;;-146.72;57.59
40994;BME280;26722;43.212;27.932;2023-07-30T07:08:53;54875.41;;;-146.72;57.93
40994;BME280;26722;43.212;27.932;2023-07-30T07:11:18;54885.97;;;-146.72;57.34
40994;BME280;26722;43.212;27.932;2023-07-30T07:13:44;54881.75;;;-146.72;58.45
40994;BME280;26722;43.212;27.932;2023-07-30T07:16:09;54875.41;;;-146.72;58.55
40994;BME280;26722;43.212;27.932;2023-07-30T07:18:35;54879.63;;;-146.72;58.50
40994;BME280;26722;43.212;27.932;2023-07-30T07:21:00;54858.53;;;-146.72;58.79
40994;BME280;26722;43.212;27.932;2023-07-30T07:23:26;54871.19;;;-146.72;59.17
40994;BME280;26722;43.212;27.932;2023-07-30T07:25:52;54879.63;;;-146.72;59.55
40994;BME280;26722;43.212;27.932;2023-07-30T07:28:17;54888.09;;;-146.72;59.57
40994;BME280;26722;43.212;27.932;2023-07-30T07:30:45;54885.97;;;-146.72;60.40
40994;BME280;26722;43.212;27.932;2023-07-30T07:33:10;54877.53;;;-146.72;59.83
40994;BME280;26722;43.212;27.932;2023-07-30T07:35:39;54883.84;;;-146.72;60.59
40994;BME280;26722;43.212;27.932;2023-07-30T07:38:04;54877.53;;;-146.72;59.93
40994;BME280;26722;43.212;27.932;2023-07-30T07:40:30;54888.09;;;-146.72;60.50
40994;BME280;26722;43.212;27.932;2023-07-30T07:42:55;54879.63;;;-146.72;59.17
40994;BME280;26722;43.212;27.932;2023-07-30T07:45:21;54864.88;;;-146.72;59.57
40994;BME280;26722;43.212;27.932;2023-07-30T07:47:46;54871.19;;;-146.72;59.68
40994;BME280;26722;43.212;27.932;2023-07-30T07:50:11;54875.41;;;-146.72;59.52
40994;BME280;26722;43.212;27.932;2023-07-30T07:52:37;54866.97;;;-146.72;60.40
40994;BME280;26722;43.212;27.932;2023-07-30T07:55:04;54875.41;;;-146.72;60.63
40994;BME280;26722;43.212;27.932;2023-07-30T07:57:29;54864.88;;;-146.72;60.25
40994;BME280;26722;43.212;27.932;2023-07-30T07:59:56;54902.84;;;-146.72;60.63
40994;BME280;26722;43.212;27.932;2023-07-30T08:02:21;54875.41;;;-146.72;60.80
40994;BME280;26722;43.212;27.932;2023-07-30T08:04:47;54875.41;;;-146.72;60.72
40994;BME280;26722;43.212;27.932;2023-07-30T08:07:12;54875.41;;;-146.72;61.19
40994;BME280;26722;43.212;27.932;2023-07-30T08:09:38;54866.97;;;-146.72;60.57
40994;BME280;26722;43.212;27.932;2023-07-30T08:12:04;54869.09;;;-146.72;60.54
40994;BME280;26722;43.212;27.932;2023-07-30T08:14:29;54877.53;;;-146.72;60.81
40994;BME280;26722;43.212;27.932;2023-07-30T08:16:55;54871.19;;;-146.72;60.40
40994;BME280;26722;43.212;27.932;2023-07-30T08:19:20;54862.75;;;-146.72;61.21
40994;BME280;26722;43.212;27.932;2023-07-30T08:21:46;54875.41;;;-146.72;61.50
40994;BME280;26722;43.212;27.932;2023-07-30T08:24:11;54879.63;;;-146.72;62.03
40994;BME280;26722;43.212;27.932;2023-07-30T08:26:37;54883.84;;;-146.72;62.43
40994;BME280;26722;43.212;27.932;2023-07-30T08:29:02;54866.97;;;-146.72;62.29
40994;BME280;26722;43.212;27.932;2023-07-30T08:31:28;54871.19;;;-146.72;62.40
40994;BME280;26722;43.212;27.932;2023-07-30T08:33:53;54879.63;;;-146.72;63.20
40994;BME280;26722;43.212;27.932;2023-07-30T08:36:19;54866.97;;;-146.72;62.99
40994;BME280;26722;43.212;27.932;2023-07-30T08:38:44;54877.53;;;-146.72;61.97
40994;BME280;26722;43.212;27.932;2023-07-30T08:41:10;54864.88;;;-146.72;61.89
40994;BME280;26722;43.212;27.932;2023-07-30T08:43:35;54864.88;;;-146.72;62.24
40994;BME280;26722;43.212;27.932;2023-07-30T08:46:01;54871.19;;;-146.72;62.96
40994;BME280;26722;43.212;27.932;2023-07-30T08:48:27;54866.97;;;-146.72;63.09
40994;BME280;26722;43.212;27.932;2023-07-30T08:50:56;54875.41;;;-146.72;62.95
40994;BME280;26722;43.212;27.932;2023-07-30T08:53:26;54875.41;;;-146.72;63.11
40994;BME280;26722;43.212;27.932;2023-07-30T08:55:53;54869.09;;;-146.72;64.04
40994;BME280;26722;43.212;27.932;2023-07-30T08:58:19;54883.84;;;-146.72;63.77
40994;BME280;26722;43.212;27.932;2023-07-30T09:00:47;54856.41;;;-146.72;64.36
40994;BME280;26722;43.212;27.932;2023-07-30T09:03:16;54866.97;;;-146.72;64.77
40994;BME280;26722;43.212;27.932;2023-07-30T09:05:42;54864.88;;;-146.72;64.47
40994;BME280;26722;43.212;27.932;2023-07-30T09:08:08;54885.97;;;-146.72;64.96
40994;BME280;26722;43.212;27.932;2023-07-30T09:10:34;54875.41;;;-146.72;65.99
40994;BME280;26722;43.212;27.932;2023-07-30T09:13:01;54862.75;;;-146.72;65.95
40994;BME280;26722;43.212;27.932;2023-07-30T09:15:35;54888.09;;;-146.72;66.86
40994;BME280;26722;43.212;27.932;2023-07-30T09:18:03;54866.97;;;-146.72;66.69
40994;BME280;26722;43.212;27.932;2023-07-30T09:20:40;54877.53;;;-146.72;66.76
40994;BME280;26722;43.212;27.932;2023-07-30T09:23:06;54881.75;;;-146.72;67.44
40994;BME280;26722;43.212;27.932;2023-07-30T09:25:33;54858.53;;;-146.72;67.61
40994;BME280;26722;43.212;27.932;2023-07-30T09:27:58;54862.75;;;-146.72;67.23
40994;BME280;26722;43.212;27.932;2023-07-30T09:30:25;54869.09;;;-146.72;67.56
40994;BME280;26722;43.212;27.932;2023-07-30T09:32:52;54879.63;;;-146.72;68.00
40994;BME280;26722;43.212;27.932;2023-07-30T09:35:18;54858.53;;;-146.72;68.61
40994;BME280;26722;43.212;27.932;2023-07-30T09:37:44;54862.75;;;-146.72;68.63
40994;BME280;26722;43.212;27.932;2023-07-30T09:40:12;54854.31;;;-146.72;68.39
40994;BME280;26722;43.212;27.932;2023-07-30T09:42:38;54864.88;;;-146.72;68.44
40994;BME280;26722;43.212;27.932;2023-07-30T09:45:08;54864.88;;;-146.72;66.95
40994;BME280;26722;43.212;27.932;2023-07-30T09:47:46;54875.41;;;-146.72;66.90
40994;BME280;26722;43.212;27.932;2023-07-30T09:50:11;54862.75;;;-146.72;66.29
40994;BME280;26722;43.212;27.932;2023-07-30T09:52:37;54877.53;;;-146.72;66.15
40994;BME280;26722;43.212;27.932;2023-07-30T09:55:06;54858.53;;;-146.72;66.35
40994;BME280;26722;43.212;27.932;2023-07-30T09:57:32;54858.53;;;-146.72;66.23
40994;BME280;26722;43.212;27.932;2023-07-30T09:59:58;54858.53;;;-146.72;65.37
40994;BME280;26722;43.212;27.932;2023-07-30T10:02:24;54862.75;;;-146.72;66.37
40994;BME280;26722;43.212;27.932;2023-07-30T10:04:52;54862.75;;;-146.72;66.10
40994;BME280;26722;43.212;27.932;2023-07-30T10:07:20;54862.75;;;-146.72;67.10
40994;BME280;26722;43.212;27.932;2023-07-30T10:09:48;54858.53;;;-146.72;67.19
40994;BME280;26722;43.212;27.932;2023-07-30T10:12:21;54858.53;;;-146.72;67.42
40994;BME280;26722;43.212;27.932;2023-07-30T10:14:48;54860.63;;;-146.72;67.13
40994;BME280;26722;43.212;27.932;2023-07-30T10:17:16;54862.75;;;-146.72;67.01
40994;BME280;26722;43.212;27.932;2023-07-30T10:19:46;54858.53;;;-146.72;67.57
40994;BME280;26722;43.212;27.932;2023-07-30T10:24:41;54860.63;;;-146.72;67.59
40994;BME280;26722;43.212;27.932;2023-07-30T10:27:23;54862.75;;;-146.72;67.78
40994;BME280;26722;43.212;27.932;2023-07-30T10:30:08;54875.41;;;-146.72;68.11
40994;BME280;26722;43.212;27.932;2023-07-30T10:32:42;54845.88;;;-146.72;67.03
40994;BME280;26722;43.212;27.932;2023-07-30T10:35:07;54850.09;;;-146.72;66.79
40994;BME280;26722;43.212;27.932;2023-07-30T10:37:33;54860.63;;;-146.72;66.80
40994;BME280;26722;43.212;27.932;2023-07-30T10:39:59;54858.53;;;-146.72;65.87
40994;BME280;26722;43.212;27.932;2023-07-30T10:42:33;54858.53;;;-146.72;66.08
40994;BME280;26722;43.212;27.932;2023-07-30T10:44:59;54854.31;;;-146.72;66.01
40994;BME280;26722;43.212;27.932;2023-07-30T10:47:27;54843.75;;;-146.72;65.88
40994;BME280;26722;43.212;27.932;2023-07-30T10:49:52;54837.41;;;-146.72;66.03
40994;BME280;26722;43.212;27.932;2023-07-30T10:52:19;54841.63;;;-146.72;64.96
40994;BME280;26722;43.212;27.932;2023-07-30T10:54:49;54845.88;;;-146.72;65.31
40994;BME280;26722;43.212;27.932;2023-07-30T10:57:14;54850.09;;;-146.72;65.61
40994;BME280;26722;43.212;27.932;2023-07-30T10:59:40;54854.31;;;-146.72;66.06
40994;BME280;26722;43.212;27.932;2023-07-30T11:02:06;54856.41;;;-146.72;67.14
40994;BME280;26722;43.212;27.932;2023-07-30T11:04:34;54845.88;;;-146.72;67.16
40994;BME280;26722;43.212;27.932;2023-07-30T11:07:00;54856.41;;;-146.72;67.55
40994;BME280;26722;43.212;27.932;2023-07-30T11:09:27;54856.41;;;-146.72;67.32
40994;BME280;26722;43.212;27.932;2023-07-30T11:11:54;54864.88;;;-146.72;66.98
40994;BME280;26722;43.212;27.932;2023-07-30T11:14:24;54866.97;;;-146.72;67.03
40994;BME280;26722;43.212;27.932;2023-07-30T11:16:56;54858.53;;;-146.72;65.48
40994;BME280;26722;43.212;27.932;2023-07-30T11:19:24;54854.31;;;-146.72;64.32
40994;BME280;26722;43.212;27.932;2023-07-30T11:21:50;54854.31;;;-146.72;64.09
40994;BME280;26722;43.212;27.932;2023-07-30T11:24:16;54862.75;;;-146.72;63.52
40994;BME280;26722;43.212;27.932;2023-07-30T11:26:43;54845.88;;;-146.72;63.22
40994;BME280;26722;43.212;27.932;2023-07-30T11:29:15;54858.53;;;-146.72;62.27
40994;BME280;26722;43.212;27.932;2023-07-30T11:31:43;54850.09;;;-146.72;61.65
40994;BME280;26722;43.212;27.932;2023-07-30T11:34:09;54850.09;;;-146.72;61.81
40994;BME280;26722;43.212;27.932;2023-07-30T11:36:34;54854.31;;;-146.72;60.83
40994;BME280;26722;43.212;27.932;2023-07-30T11:39:00;54869.09;;;-146.72;61.12
40994;BME280;26722;43.212;27.932;2023-07-30T11:41:27;54850.09;;;-146.72;60.05
40994;BME280;26722;43.212;27.932;2023-07-30T11:43:53;54881.75;;;-146.72;60.34
40994;BME280;26722;43.212;27.932;2023-07-30T11:46:19;54854.31;;;-146.72;60.54
40994;BME280;26722;43.212;27.932;2023-07-30T11:48:49;54869.09;;;-146.72;59.99
40994;BME280;26722;43.212;27.932;2023-07-30T11:51:23;54847.97;;;-146.72;59.54
40994;BME280;26722;43.212;27.932;2023-07-30T11:56:22;54858.53;;;-146.72;59.14
40994;BME280;26722;43.212;27.932;2023-07-30T11:58:49;54862.75;;;-146.72;59.14
40994;BME280;26722;43.212;27.932;2023-07-30T12:01:15;54852.19;;;-146.72;59.11
40994;BME280;26722;43.212;27.932;2023-07-30T12:03:41;54845.88;;;-146.72;59.47
40994;BME280;26722;43.212;27.932;2023-07-30T12:06:07;54858.53;;;-146.72;58.81
40994;BME280;26722;43.212;27.932;2023-07-30T12:08:34;54858.53;;;-146.72;59.53
40994;BME280;26722;43.212;27.932;2023-07-30T12:11:05;54856.41;;;-146.72;60.00
40994;BME280;26722;43.212;27.932;2023-07-30T12:13:31;54860.63;;;-146.72;59.27
40994;BME280;26722;43.212;27.932;2023-07-30T12:15:57;54854.31;;;-146.72;58.74
40994;BME280;26722;43.212;27.932;2023-07-30T12:18:23;54845.88;;;-146.72;58.96
40994;BME280;26722;43.212;27.932;2023-07-30T12:20:49;54862.75;;;-146.72;58.60
40994;BME280;26722;43.212;27.932;2023-07-30T12:23:19;54858.53;;;-146.72;57.74
40994;BME280;26722;43.212;27.932;2023-07-30T12:25:45;54850.09;;;-146.72;58.30
40994;BME280;26722;43.212;27.932;2023-07-30T12:28:11;54852.19;;;-146.72;58.04
40994;BME280;26722;43.212;27.932;2023-07-30T12:30:36;54858.53;;;-146.72;58.62